createdAt,value
2019-01-14T00:03:07.899Z,29.97
2019-01-14T00:09:02.957Z,28.19
2019-01-14T00:14:57.900Z,28.31
2019-01-14T00:20:52.900Z,27.08
2019-01-14T00:26:47.905Z,29.56
2019-01-14T00:32:42.911Z,29.29
2019-01-14T00:38:37.912Z,31.44
2019-01-14T00:44:32.920Z,24.29
2019-01-14T00:50:27.899Z,26.88
2019-01-14T00:56:22.922Z,21.78
2019-01-14T01:02:17.930Z,26.05
2019-01-14T01:08:12.927Z,27.5
2019-01-14T01:14:07.927Z,26.96
2019-01-14T01:20:02.928Z,27.23
2019-01-14T01:25:57.920Z,28.33
2019-01-14T01:31:52.928Z,23.41
2019-01-14T01:37:47.955Z,24.78
2019-01-14T01:43:42.918Z,23.14
2019-01-14T01:49:37.935Z,21.41
2019-01-14T01:55:32.949Z,23.64
2019-01-14T02:01:27.926Z,32.36
2019-01-14T02:07:22.938Z,38.08
2019-01-14T02:13:17.945Z,36.71
2019-01-14T02:19:12.949Z,35.65
2019-01-14T02:25:07.959Z,32.51
2019-01-14T02:31:02.952Z,29.17
2019-01-14T02:36:57.954Z,28.5
2019-01-14T02:42:52.957Z,29.23
2019-01-14T02:48:47.950Z,26.63
2019-01-14T02:54:42.956Z,20.2
2019-01-14T03:00:37.971Z,18.26
2019-01-14T03:06:32.955Z,15.73
2019-01-14T03:12:27.989Z,15.66
2019-01-14T03:18:23.073Z,18.17
2019-01-14T03:24:18.004Z,15.12
2019-01-14T03:30:13.024Z,15.26
2019-01-14T03:36:07.993Z,12.35
2019-01-14T03:42:03.007Z,13.18
2019-01-14T03:47:58.027Z,14.4
2019-01-14T03:53:52.988Z,11.76
2019-01-14T03:59:47.997Z,12.03
2019-01-14T04:05:43.014Z,17.59
2019-01-14T04:11:38.033Z,21.19
2019-01-14T04:17:33.031Z,21.56
2019-01-14T04:23:28.016Z,22.73
2019-01-14T04:29:22.995Z,20.23
2019-01-14T04:35:18.089Z,17.32
2019-01-14T04:41:13.013Z,15.62
2019-01-14T04:47:08.034Z,14.59
2019-01-14T04:53:03.026Z,16.27
2019-01-14T04:58:58.042Z,15.66
2019-01-14T05:04:53.049Z,15.65
2019-01-14T05:10:48.036Z,17.61
2019-01-14T05:16:43.029Z,18.43
2019-01-14T05:22:38.040Z,14.24
2019-01-14T05:28:33.054Z,14.14
2019-01-14T05:34:28.018Z,13.26
2019-01-14T05:40:23.046Z,12.83
2019-01-14T05:46:18.062Z,10.72
2019-01-14T05:52:13.103Z,9.53
2019-01-14T05:58:08.074Z,10.27
2019-01-14T06:04:03.060Z,9.63
2019-01-14T06:09:58.072Z,9.1
2019-01-14T06:15:53.082Z,11.94
2019-01-14T06:21:48.040Z,12.14
2019-01-14T06:27:43.073Z,11.81
2019-01-14T06:33:38.063Z,11.39
2019-01-14T06:39:33.071Z,11.69
2019-01-14T06:45:28.073Z,12.74
2019-01-14T06:51:23.087Z,10.71
2019-01-14T06:57:18.057Z,9.2
2019-01-14T07:03:13.078Z,8.93
2019-01-14T07:09:08.101Z,8.2
2019-01-14T07:15:03.090Z,11.2
2019-01-14T07:20:58.139Z,21.96
2019-01-14T07:26:53.089Z,21.63
2019-01-14T07:32:48.083Z,17.54
2019-01-14T07:38:43.089Z,29.33
2019-01-14T07:44:38.110Z,27.27
2019-01-14T07:50:33.101Z,29.68
2019-01-14T07:56:28.117Z,21.24
2019-01-14T08:02:23.118Z,20.86
2019-01-14T08:08:18.127Z,19.49
2019-01-14T08:14:14.210Z,22.63
2019-01-14T08:20:08.114Z,20.93
2019-01-14T08:26:03.192Z,22.69
2019-01-14T08:31:58.122Z,23.17
2019-01-14T08:37:53.131Z,21.47
2019-01-14T08:43:48.136Z,20.84
2019-01-14T08:49:43.140Z,17.5
2019-01-14T08:55:38.143Z,20.2
2019-01-14T09:01:33.156Z,21.93
2019-01-14T09:07:28.120Z,20.59
2019-01-14T09:13:23.162Z,23.43
2019-01-14T09:19:18.134Z,22.89
2019-01-14T09:25:13.155Z,19.47
2019-01-14T09:31:08.155Z,21.12
2019-01-14T09:37:03.151Z,22.28
2019-01-14T09:42:58.144Z,20.79
2019-01-14T09:48:53.146Z,19.73
2019-01-14T09:54:48.194Z,20
2019-01-14T10:00:43.178Z,22.04
2019-01-14T10:06:38.198Z,22.1
2019-01-14T10:12:33.230Z,22.45
2019-01-14T10:18:28.192Z,15.43
2019-01-14T10:24:23.199Z,14.49
2019-01-14T10:30:18.171Z,13.37
2019-01-14T10:36:13.225Z,11.95
2019-01-14T10:42:08.184Z,11.91
2019-01-14T10:48:03.326Z,9.33
2019-01-14T10:53:58.223Z,9.07
2019-01-14T10:59:53.210Z,7.06
2019-01-14T11:05:48.195Z,9.51
2019-01-14T11:11:43.251Z,12.55
2019-01-14T11:17:38.211Z,7.22
2019-01-14T11:23:33.244Z,6.52
2019-01-14T11:29:28.220Z,7.13
2019-01-14T11:35:23.215Z,7.38
2019-01-14T11:41:18.216Z,4.28
2019-01-14T11:47:13.240Z,11
2019-01-14T11:53:08.242Z,13.95
2019-01-14T11:59:03.226Z,11.2
2019-01-14T12:04:58.247Z,10.26
2019-01-14T12:10:53.234Z,11.84
2019-01-14T12:16:48.262Z,10.66
2019-01-14T12:22:43.269Z,9.66
2019-01-14T12:28:38.252Z,7.06
2019-01-14T12:34:33.289Z,12.7
2019-01-14T12:40:28.292Z,5.91
2019-01-14T12:46:23.283Z,6.66
2019-01-14T12:52:18.258Z,6.72
2019-01-14T12:58:13.270Z,7.18
2019-01-14T13:04:08.262Z,8.1
2019-01-14T13:10:03.330Z,9.33
2019-01-14T13:15:58.360Z,10.1
2019-01-14T13:21:53.293Z,7.31
2019-01-14T13:27:48.373Z,8.34
2019-01-14T13:33:43.297Z,9.5
2019-01-14T13:39:38.327Z,9.82
2019-01-14T13:45:33.320Z,9.81
2019-01-14T13:51:28.316Z,9.19
2019-01-14T13:57:23.322Z,12.59
2019-01-14T14:03:18.312Z,8.51
2019-01-14T14:09:13.343Z,9.68
2019-01-14T14:15:08.329Z,14.08
2019-01-14T14:21:03.332Z,12.69
2019-01-14T14:26:58.361Z,20.07
2019-01-14T14:32:53.330Z,13.34
2019-01-14T14:38:48.374Z,6.8
2019-01-14T14:44:43.331Z,4.82
2019-01-14T14:50:38.375Z,10.54
2019-01-14T14:56:33.375Z,10.83
2019-01-14T15:02:28.376Z,6.3
2019-01-14T15:08:23.366Z,15.6
2019-01-14T15:14:18.418Z,17.51
2019-01-14T15:20:13.352Z,20.76
2019-01-14T15:26:08.370Z,20.58
2019-01-14T15:32:03.404Z,5.54
2019-01-14T15:37:58.361Z,7.28
2019-01-14T15:43:53.376Z,4.08
2019-01-14T15:49:48.375Z,8.33
2019-01-14T15:55:43.381Z,5.48
2019-01-14T16:01:38.409Z,8.71
2019-01-14T16:07:33.439Z,9.05
2019-01-14T16:13:28.407Z,4.77
2019-01-14T16:19:23.412Z,22.42
2019-01-14T16:25:18.415Z,3.77
2019-01-14T16:31:13.420Z,5.46
2019-01-14T16:37:08.419Z,4.67
2019-01-14T16:43:04.433Z,13.3
2019-01-14T16:48:58.410Z,2.02
2019-01-14T16:54:53.461Z,3.17
2019-01-14T17:00:48.429Z,3.93
2019-01-14T17:06:43.444Z,2.2
2019-01-14T17:12:38.439Z,2.14
2019-01-14T17:18:33.512Z,1.96
2019-01-14T17:24:28.449Z,1.63
2019-01-14T17:30:23.450Z,11.74
2019-01-14T17:36:18.445Z,4.03
2019-01-14T17:42:13.457Z,2.21
2019-01-14T17:48:08.462Z,3.26
2019-01-14T17:54:03.476Z,2.11
2019-01-14T17:59:58.532Z,5.03
2019-01-14T18:05:53.465Z,8.15
2019-01-14T18:11:48.493Z,6.8
2019-01-14T18:17:43.496Z,2.84
2019-01-14T18:23:38.473Z,2.13
2019-01-14T18:29:33.493Z,1.75
2019-01-14T18:35:28.482Z,2.07
2019-01-14T18:41:23.493Z,3.59
2019-01-14T18:47:18.552Z,4.62
2019-01-14T18:53:13.504Z,6.33
2019-01-14T18:59:08.503Z,4.33
2019-01-14T19:05:03.554Z,8.71
2019-01-14T19:10:58.553Z,13.2
2019-01-14T19:16:53.524Z,13.35
2019-01-14T19:22:48.500Z,24.35
2019-01-14T19:28:43.542Z,12.42
2019-01-14T19:34:38.526Z,10.69
2019-01-14T19:40:33.516Z,29.67
2019-01-14T19:46:28.535Z,11.43
2019-01-14T19:52:23.517Z,8.55
2019-01-14T19:58:18.551Z,13.37
2019-01-14T20:04:13.539Z,6.65
2019-01-14T20:10:08.542Z,3.36
2019-01-14T20:16:03.543Z,3.17
2019-01-14T20:21:58.554Z,3.66
2019-01-14T20:27:53.600Z,7.7
2019-01-14T20:33:48.540Z,9.59
2019-01-14T20:39:43.549Z,4.27
2019-01-14T20:45:38.566Z,2.86
2019-01-14T20:51:33.549Z,2.07
2019-01-14T20:57:28.585Z,2.65
2019-01-14T21:03:23.571Z,4.51
2019-01-14T21:09:18.573Z,2.92
2019-01-14T21:15:13.577Z,2.15
2019-01-14T21:21:08.596Z,1.27
2019-01-14T21:27:03.573Z,2.78
2019-01-14T21:32:58.581Z,2.51
2019-01-14T21:38:53.632Z,7.14
2019-01-14T21:44:48.584Z,2.72
2019-01-14T21:50:43.578Z,4.99
2019-01-14T21:56:39.017Z,1.88
2019-01-14T22:02:33.611Z,2.51
2019-01-14T22:08:28.589Z,13.57
2019-01-14T22:14:23.643Z,5.2
2019-01-14T22:20:18.869Z,6.72
2019-01-14T22:26:13.607Z,5.26
2019-01-14T22:32:08.605Z,3.13
2019-01-14T22:38:03.605Z,2.87
2019-01-14T22:43:58.626Z,5.03
2019-01-14T22:49:53.622Z,1.8
2019-01-14T22:55:48.611Z,1.81
2019-01-14T23:01:43.643Z,1.23
2019-01-14T23:07:38.666Z,0.75
2019-01-14T23:13:33.659Z,0.68
2019-01-14T23:19:28.637Z,0.59
2019-01-14T23:25:23.659Z,0.51
2019-01-14T23:31:18.632Z,0.56
2019-01-14T23:37:13.653Z,0.54
2019-01-14T23:43:08.634Z,0.49
2019-01-14T23:49:03.666Z,0.5
2019-01-14T23:54:58.671Z,0.5
